createdAt,value
2023-04-09T00:00:06.275Z,9.10
2023-04-09T00:02:34.970Z,9.10
2023-04-09T00:05:05.074Z,9.10
2023-04-09T00:07:33.721Z,9.00
2023-04-09T00:10:02.216Z,9.10
2023-04-09T00:12:31.167Z,9.00
2023-04-09T00:14:59.525Z,9.00
2023-04-09T00:17:27.978Z,9.00
2023-04-09T00:19:56.380Z,9.00
2023-04-09T00:22:26.082Z,8.90
2023-04-09T00:24:54.951Z,8.90
2023-04-09T00:27:23.680Z,8.80
2023-04-09T00:29:54.429Z,8.80
2023-04-09T00:32:22.817Z,8.70
2023-04-09T00:34:51.479Z,8.70
2023-04-09T00:37:20.291Z,8.70
2023-04-09T00:39:49.858Z,8.70
2023-04-09T00:42:18.282Z,8.60
2023-04-09T00:44:46.667Z,8.50
2023-04-09T00:47:15.532Z,8.50
2023-04-09T00:49:44.605Z,8.40
2023-04-09T00:52:13.274Z,8.40
2023-04-09T00:54:41.753Z,8.50
2023-04-09T00:57:12.438Z,8.40
2023-04-09T00:59:41.112Z,8.40
2023-04-09T01:02:09.647Z,8.40
2023-04-09T01:04:39.629Z,8.40
2023-04-09T01:07:14.520Z,8.40
2023-04-09T01:09:49.360Z,8.30
2023-04-09T01:12:31.458Z,8.20
2023-04-09T01:15:06.630Z,8.30
2023-04-09T01:17:40.110Z,8.20
2023-04-09T01:20:14.571Z,8.20
2023-04-09T01:22:57.209Z,8.20
2023-04-09T01:25:44.878Z,8.20
2023-04-09T01:28:19.325Z,8.10
2023-04-09T01:31:00.887Z,8.10
2023-04-09T01:33:31.828Z,8.00
2023-04-09T01:36:01.217Z,8.00
2023-04-09T01:38:29.894Z,7.90
2023-04-09T01:40:59.116Z,7.90
2023-04-09T01:43:29.651Z,7.80
2023-04-09T01:45:58.835Z,7.80
2023-04-09T01:48:27.780Z,7.70
2023-04-09T01:50:56.351Z,7.70
2023-04-09T01:53:28.303Z,7.70
2023-04-09T01:55:56.909Z,7.70
2023-04-09T01:58:26.245Z,7.60
2023-04-09T02:00:59.639Z,7.50
2023-04-09T02:03:35.164Z,7.50
2023-04-09T02:06:10.306Z,7.50
2023-04-09T02:08:39.540Z,7.50
2023-04-09T02:11:11.026Z,7.50
2023-04-09T02:13:41.563Z,7.50
2023-04-09T02:16:14.320Z,7.50
2023-04-09T02:18:42.825Z,7.50
2023-04-09T02:21:13.764Z,7.40
2023-04-09T02:23:42.203Z,7.30
2023-04-09T02:26:10.946Z,7.40
2023-04-09T02:28:39.411Z,7.30
2023-04-09T02:31:07.908Z,7.30
2023-04-09T02:33:37.664Z,7.30
2023-04-09T02:36:06.945Z,7.40
2023-04-09T02:38:35.469Z,7.40
2023-04-09T02:41:03.944Z,7.30
2023-04-09T02:43:32.529Z,7.30
2023-04-09T02:46:00.978Z,7.30
2023-04-09T02:48:29.815Z,7.30
2023-04-09T02:50:59.838Z,7.20
2023-04-09T02:53:28.255Z,7.20
2023-04-09T02:55:56.931Z,7.20
2023-04-09T02:58:25.365Z,7.20
2023-04-09T03:00:53.654Z,7.10
2023-04-09T03:03:22.231Z,7.10
2023-04-09T03:05:50.970Z,7.10
2023-04-09T03:08:20.858Z,7.00
2023-04-09T03:10:49.210Z,7.10
2023-04-09T03:13:17.616Z,7.00
2023-04-09T03:15:46.052Z,6.90
2023-04-09T03:18:14.732Z,6.90
2023-04-09T03:20:43.276Z,6.90
2023-04-09T03:23:12.319Z,6.90
2023-04-09T03:25:41.896Z,6.90
2023-04-09T03:28:10.539Z,7.00
2023-04-09T03:30:38.994Z,7.00
2023-04-09T03:33:07.428Z,7.00
2023-04-09T03:35:35.824Z,6.90
2023-04-09T03:38:04.213Z,6.80
2023-04-09T03:40:33.490Z,6.80
2023-04-09T03:43:04.327Z,6.70
2023-04-09T03:45:32.760Z,6.70
2023-04-09T03:48:01.441Z,6.70
2023-04-09T03:50:29.866Z,6.60
2023-04-09T03:52:58.289Z,6.60
2023-04-09T03:55:27.121Z,6.60
2023-04-09T03:57:55.819Z,6.50
2023-04-09T04:00:25.704Z,6.50
2023-04-09T04:02:54.385Z,6.50
2023-04-09T04:05:26.276Z,6.40
2023-04-09T04:07:55.024Z,6.40
2023-04-09T04:10:23.482Z,6.40
2023-04-09T04:12:51.888Z,6.40
2023-04-09T04:15:20.970Z,6.40
2023-04-09T04:17:50.884Z,6.40
2023-04-09T04:20:19.314Z,6.30
2023-04-09T04:22:47.778Z,6.30
2023-04-09T04:25:16.286Z,6.20
2023-04-09T04:27:45.131Z,6.20
2023-04-09T04:30:13.552Z,6.10
2023-04-09T04:32:42.007Z,6.10
2023-04-09T04:35:11.886Z,6.00
2023-04-09T04:37:40.943Z,6.00
2023-04-09T04:40:10.196Z,6.00
2023-04-09T04:42:38.610Z,6.00
2023-04-09T04:45:07.873Z,5.90
2023-04-09T04:47:36.493Z,5.90
2023-04-09T04:50:05.202Z,5.80
2023-04-09T04:52:34.992Z,5.90
2023-04-09T04:55:03.511Z,5.90
2023-04-09T04:57:32.063Z,5.90
2023-04-09T05:00:00.623Z,5.90
2023-04-09T05:02:29.188Z,5.80
2023-04-09T05:04:57.780Z,5.80
2023-04-09T05:07:26.718Z,5.80
2023-04-09T05:09:56.512Z,5.80
2023-04-09T05:12:24.896Z,5.70
2023-04-09T05:14:53.342Z,5.70
2023-04-09T05:17:22.312Z,5.60
2023-04-09T05:19:53.046Z,5.60
2023-04-09T05:22:21.380Z,5.60
2023-04-09T05:24:50.002Z,5.50
2023-04-09T05:27:22.185Z,5.40
2023-04-09T05:29:50.646Z,5.40
2023-04-09T05:32:19.118Z,5.40
2023-04-09T05:34:47.831Z,5.40
2023-04-09T05:37:16.223Z,5.40
2023-04-09T05:39:44.730Z,5.30
2023-04-09T05:42:13.168Z,5.40
2023-04-09T05:44:42.830Z,5.40
2023-04-09T05:47:11.490Z,5.40
2023-04-09T05:49:39.893Z,5.40
2023-04-09T05:52:08.345Z,5.40
2023-04-09T05:54:36.860Z,5.40
2023-04-09T05:57:05.825Z,5.40
2023-04-09T05:59:34.692Z,5.40
2023-04-09T06:02:04.409Z,5.40
2023-04-09T06:04:33.044Z,5.40
2023-04-09T06:07:01.842Z,5.40
2023-04-09T06:09:30.316Z,5.40
2023-04-09T06:11:58.866Z,5.50
2023-04-09T06:14:27.315Z,5.50
2023-04-09T06:16:55.879Z,5.40
2023-04-09T06:19:26.200Z,5.40
2023-04-09T06:21:54.677Z,5.40
2023-04-09T06:24:23.217Z,5.50
2023-04-09T06:26:52.313Z,5.50
2023-04-09T06:29:21.583Z,5.50
2023-04-09T06:31:51.112Z,5.60
2023-04-09T06:34:19.604Z,5.70
2023-04-09T06:36:49.653Z,5.70
2023-04-09T06:39:18.035Z,5.80
2023-04-09T06:41:46.529Z,5.90
2023-04-09T06:44:15.007Z,6.00
2023-04-09T06:46:43.752Z,6.20
2023-04-09T06:49:12.454Z,6.20
2023-04-09T06:51:41.074Z,6.30
2023-04-09T06:54:10.853Z,6.40
2023-04-09T06:56:39.152Z,6.60
2023-04-09T06:59:07.584Z,6.70
2023-04-09T07:01:37.787Z,6.80
2023-04-09T07:04:06.914Z,6.90
2023-04-09T07:06:35.422Z,7.00
2023-04-09T07:09:03.808Z,7.10
2023-04-09T07:11:33.576Z,7.20
2023-04-09T07:14:02.007Z,7.20
2023-04-09T07:16:30.837Z,7.40
2023-04-09T07:18:59.242Z,7.70
2023-04-09T07:21:28.381Z,7.90
2023-04-09T07:23:57.603Z,7.90
2023-04-09T07:26:26.401Z,8.00
2023-04-09T07:28:56.173Z,8.10
2023-04-09T07:31:24.639Z,8.20
2023-04-09T07:33:53.293Z,8.30
2023-04-09T07:36:21.890Z,8.40
2023-04-09T07:38:50.461Z,8.50
2023-04-09T07:41:18.986Z,8.60
2023-04-09T07:43:47.353Z,8.70
2023-04-09T07:46:22.124Z,8.80
2023-04-09T07:48:51.274Z,8.90
2023-04-09T07:51:20.501Z,9.00
2023-04-09T07:53:48.959Z,9.10
2023-04-09T07:56:17.654Z,9.30
2023-04-09T07:58:46.068Z,9.40
2023-04-09T08:01:14.484Z,9.60
2023-04-09T08:03:44.334Z,9.60
2023-04-09T08:06:12.918Z,9.60
2023-04-09T08:08:41.823Z,9.70
2023-04-09T08:11:10.430Z,9.90
2023-04-09T08:13:39.119Z,10.40
2023-04-09T08:16:08.069Z,10.50
2023-04-09T08:18:36.497Z,10.30
2023-04-09T08:21:07.740Z,10.20
2023-04-09T08:23:36.248Z,10.30
2023-04-09T08:26:04.638Z,10.80
2023-04-09T08:28:33.348Z,10.60
2023-04-09T08:31:02.093Z,10.60
2023-04-09T08:33:30.974Z,10.80
2023-04-09T08:36:00.312Z,11.00
2023-04-09T08:38:31.949Z,11.00
2023-04-09T08:41:00.446Z,10.80
2023-04-09T08:43:41.972Z,10.80
2023-04-09T08:46:20.126Z,10.90
2023-04-09T08:48:50.733Z,10.90
2023-04-09T08:51:20.597Z,11.00
2023-04-09T08:53:56.923Z,11.60
2023-04-09T08:56:26.247Z,12.10
2023-04-09T08:58:56.167Z,11.70
2023-04-09T09:01:27.232Z,12.40
2023-04-09T09:04:00.933Z,13.50
2023-04-09T09:06:33.426Z,13.80
2023-04-09T09:09:05.173Z,14.10
2023-04-09T09:11:34.126Z,14.40
2023-04-09T09:14:03.666Z,14.50
2023-04-09T09:16:33.222Z,14.50
2023-04-09T09:19:02.117Z,14.60
2023-04-09T09:21:31.143Z,14.70
2023-04-09T09:23:59.691Z,14.60
2023-04-09T09:26:31.187Z,14.70
2023-04-09T09:29:01.616Z,14.70
2023-04-09T09:31:30.262Z,14.90
2023-04-09T09:34:01.141Z,15.10
2023-04-09T09:36:33.803Z,15.20
2023-04-09T09:39:09.800Z,15.20
2023-04-09T09:41:40.015Z,15.10
2023-04-09T09:44:08.716Z,15.00
2023-04-09T09:46:38.712Z,15.20
2023-04-09T09:49:07.391Z,15.20
2023-04-09T09:51:40.875Z,15.50
2023-04-09T09:54:10.806Z,15.50
2023-04-09T09:56:43.457Z,15.50
2023-04-09T09:59:17.779Z,15.50
2023-04-09T10:01:48.484Z,15.60
2023-04-09T10:04:19.740Z,15.70
2023-04-09T10:06:52.154Z,15.80
2023-04-09T10:09:23.283Z,15.80
2023-04-09T10:11:53.172Z,15.80
2023-04-09T10:14:22.442Z,15.90
2023-04-09T10:16:51.574Z,16.10
2023-04-09T10:19:20.662Z,16.30
2023-04-09T10:21:54.934Z,16.30
2023-04-09T10:24:24.130Z,16.40
2023-04-09T10:26:56.252Z,16.30
2023-04-09T10:29:29.925Z,16.30
2023-04-09T10:32:06.399Z,16.20
2023-04-09T10:34:39.292Z,16.30
2023-04-09T10:37:09.975Z,16.30
2023-04-09T10:39:42.915Z,16.50
2023-04-09T10:42:16.232Z,16.90
2023-04-09T10:44:44.656Z,16.80
2023-04-09T10:47:13.578Z,16.80
2023-04-09T10:49:42.907Z,17.00
2023-04-09T10:52:13.753Z,17.00
2023-04-09T10:54:49.380Z,17.00
2023-04-09T10:57:24.584Z,17.20
2023-04-09T10:59:54.149Z,17.10
2023-04-09T11:03:22.392Z,17.00
2023-04-09T11:05:53.829Z,17.10
2023-04-09T11:08:23.393Z,17.10
2023-04-09T11:10:54.456Z,16.90
2023-04-09T11:13:24.204Z,17.00
2023-04-09T11:15:52.778Z,17.10
2023-04-09T11:18:26.697Z,17.10
2023-04-09T11:20:59.306Z,17.10
2023-04-09T11:23:28.366Z,17.20
2023-04-09T11:25:57.028Z,17.10
2023-04-09T11:28:28.271Z,17.10
2023-04-09T11:30:56.787Z,17.20
2023-04-09T11:33:32.356Z,17.10
2023-04-09T11:36:01.757Z,17.20
2023-04-09T11:38:33.168Z,17.30
2023-04-09T11:41:03.544Z,17.40
2023-04-09T11:43:33.299Z,17.40
2023-04-09T11:46:01.861Z,17.50
2023-04-09T11:48:31.506Z,17.40
2023-04-09T11:50:59.969Z,17.50
2023-04-09T11:53:32.504Z,17.50
2023-04-09T11:56:01.662Z,17.50
2023-04-09T11:58:30.896Z,17.50
2023-04-09T12:01:01.199Z,17.30
2023-04-09T12:03:32.420Z,17.30
2023-04-09T12:06:02.919Z,17.40
2023-04-09T12:08:34.605Z,17.50
2023-04-09T12:11:10.647Z,17.70
2023-04-09T12:13:42.961Z,17.70
2023-04-09T12:16:13.115Z,17.60
2023-04-09T12:18:42.527Z,17.60
2023-04-09T12:21:11.500Z,17.60
2023-04-09T12:23:39.962Z,17.60
2023-04-09T12:26:08.392Z,17.60
2023-04-09T12:28:37.011Z,17.70
2023-04-09T12:31:06.032Z,17.60
2023-04-09T12:33:38.898Z,17.60
2023-04-09T12:36:07.650Z,17.50
2023-04-09T12:38:36.158Z,17.40
2023-04-09T12:41:04.597Z,17.10
2023-04-09T12:43:32.984Z,17.10
2023-04-09T12:46:01.566Z,17.40
2023-04-09T12:48:30.382Z,17.20
2023-04-09T12:50:59.986Z,17.50
2023-04-09T12:53:28.429Z,17.60
2023-04-09T12:55:57.108Z,17.70
2023-04-09T12:58:25.879Z,17.60
2023-04-09T13:00:54.637Z,17.40
2023-04-09T13:03:23.372Z,17.30
2023-04-09T13:05:52.082Z,17.30
2023-04-09T13:08:21.917Z,17.10
2023-04-09T13:10:50.348Z,17.00
2023-04-09T13:13:18.788Z,17.30
2023-04-09T13:15:47.158Z,17.60
2023-04-09T13:18:15.615Z,17.80
2023-04-09T13:20:44.134Z,17.80
2023-04-09T13:23:12.592Z,17.80
2023-04-09T13:25:42.235Z,17.60
2023-04-09T13:28:11.098Z,17.80
2023-04-09T13:30:39.608Z,17.90
2023-04-09T13:33:08.318Z,17.90
2023-04-09T13:35:37.115Z,17.90
2023-04-09T13:38:05.899Z,18.00
2023-04-09T13:40:34.337Z,18.10
2023-04-09T13:43:04.227Z,18.10
2023-04-09T13:45:32.672Z,18.10
2023-04-09T13:48:01.421Z,18.10
2023-04-09T13:50:30.492Z,18.10
2023-04-09T13:52:58.864Z,18.10
2023-04-09T13:55:27.189Z,18.10
2023-04-09T13:57:55.820Z,18.10
2023-04-09T14:00:25.749Z,18.20
2023-04-09T14:02:54.262Z,18.20
2023-04-09T14:05:22.850Z,18.30
2023-04-09T14:07:51.803Z,18.40
2023-04-09T14:10:20.282Z,18.40
2023-04-09T14:12:48.782Z,18.30
2023-04-09T14:15:17.231Z,18.30
2023-04-09T14:17:47.281Z,18.40
2023-04-09T14:20:15.672Z,18.40
2023-04-09T14:22:49.108Z,18.40
2023-04-09T14:25:17.615Z,18.40
2023-04-09T14:27:46.593Z,18.40
2023-04-09T14:30:15.471Z,18.40
2023-04-09T14:32:44.261Z,18.40
2023-04-09T14:35:14.077Z,18.40
2023-04-09T14:37:42.733Z,18.40
2023-04-09T14:40:11.405Z,18.40
2023-04-09T14:42:40.413Z,18.40
2023-04-09T14:45:09.386Z,18.40
2023-04-09T14:47:38.035Z,18.40
2023-04-09T14:50:06.889Z,18.40
2023-04-09T14:52:36.720Z,18.40
2023-04-09T14:55:05.573Z,18.40
2023-04-09T14:57:34.105Z,18.50
2023-04-09T15:00:02.736Z,18.50
2023-04-09T15:02:31.456Z,18.60
2023-04-09T15:05:00.084Z,18.70
2023-04-09T15:07:29.056Z,18.60
2023-04-09T15:10:00.017Z,18.70
2023-04-09T15:12:29.220Z,18.70
2023-04-09T15:14:57.758Z,18.80
2023-04-09T15:17:27.473Z,18.70
2023-04-09T15:19:55.941Z,18.70
2023-04-09T15:22:24.404Z,18.70
2023-04-09T15:24:52.932Z,18.70
2023-04-09T15:27:22.863Z,18.70
2023-04-09T15:29:51.358Z,18.80
2023-04-09T15:32:19.894Z,18.80
2023-04-09T15:34:48.378Z,18.80
2023-04-09T15:37:16.884Z,18.80
2023-04-09T15:39:45.893Z,18.80
2023-04-09T15:42:20.298Z,18.80
2023-04-09T15:44:50.581Z,18.50
2023-04-09T15:47:19.332Z,17.90
2023-04-09T15:49:47.708Z,17.80
2023-04-09T15:52:16.187Z,18.10
2023-04-09T15:54:44.706Z,18.40
2023-04-09T15:57:14.426Z,18.20
2023-04-09T15:59:42.896Z,18.30
2023-04-09T16:02:12.530Z,18.00
2023-04-09T16:04:40.901Z,17.70
2023-04-09T16:07:09.908Z,17.90
2023-04-09T16:09:38.362Z,18.20
2023-04-09T16:12:07.148Z,18.10
2023-04-09T16:14:35.451Z,18.30
2023-04-09T16:17:03.948Z,18.20
2023-04-09T16:19:33.757Z,18.30
2023-04-09T16:22:02.290Z,18.10
2023-04-09T16:24:31.745Z,17.70
2023-04-09T16:27:01.678Z,18.10
2023-04-09T16:29:30.132Z,17.40
2023-04-09T16:31:58.894Z,17.30
2023-04-09T16:34:27.468Z,17.40
2023-04-09T16:36:57.474Z,17.30
2023-04-09T16:39:25.995Z,17.00
2023-04-09T16:41:54.443Z,16.90
2023-04-09T16:44:22.862Z,16.90
2023-04-09T16:46:51.958Z,16.80
2023-04-09T16:49:20.468Z,16.80
2023-04-09T16:51:51.773Z,16.80
2023-04-09T16:54:21.781Z,16.40
2023-04-09T16:56:50.103Z,16.40
2023-04-09T16:59:21.029Z,16.40
2023-04-09T17:01:49.944Z,16.20
2023-04-09T17:04:18.446Z,16.50
2023-04-09T17:06:47.404Z,16.60
2023-04-09T17:09:16.342Z,16.50
2023-04-09T17:11:46.040Z,16.50
2023-04-09T17:14:14.474Z,16.30
2023-04-09T17:16:43.325Z,16.40
2023-04-09T17:19:13.894Z,16.30
2023-04-09T17:21:42.319Z,16.30
2023-04-09T17:24:10.768Z,16.40
2023-04-09T17:26:39.547Z,16.50
2023-04-09T17:29:09.482Z,16.50
2023-04-09T17:31:37.982Z,16.40
2023-04-09T17:34:06.340Z,16.50
2023-04-09T17:36:34.849Z,16.40
2023-04-09T17:39:03.314Z,16.30
2023-04-09T17:41:31.844Z,16.30
2023-04-09T17:44:00.353Z,16.30
2023-04-09T17:46:30.561Z,16.10
2023-04-09T17:48:59.011Z,16.00
2023-04-09T17:51:27.729Z,16.20
2023-04-09T17:53:56.334Z,16.20
2023-04-09T17:56:25.208Z,16.20
2023-04-09T17:58:54.200Z,16.10
2023-04-09T18:01:23.041Z,16.10
2023-04-09T18:03:52.954Z,16.00
2023-04-09T18:06:21.743Z,16.00
2023-04-09T18:08:51.036Z,15.90
2023-04-09T18:11:19.638Z,15.70
2023-04-09T18:13:48.075Z,15.70
2023-04-09T18:16:17.511Z,15.60
2023-04-09T18:18:46.227Z,15.50
2023-04-09T18:21:16.283Z,15.50
2023-04-09T18:23:44.861Z,15.40
2023-04-09T18:26:13.541Z,15.30
2023-04-09T18:28:42.077Z,15.30
2023-04-09T18:31:12.863Z,15.20
2023-04-09T18:33:41.109Z,15.10
2023-04-09T18:36:09.822Z,15.10
2023-04-09T18:38:39.645Z,15.00
2023-04-09T18:41:08.400Z,15.00
2023-04-09T18:43:36.871Z,15.00
2023-04-09T18:46:06.058Z,15.10
2023-04-09T18:48:34.771Z,15.00
2023-04-09T18:51:03.195Z,14.90
2023-04-09T18:53:31.832Z,14.80
2023-04-09T18:56:01.806Z,14.80
2023-04-09T18:58:30.345Z,14.70
2023-04-09T19:00:58.831Z,14.70
2023-04-09T19:03:29.463Z,14.70
2023-04-09T19:06:00.143Z,14.70
2023-04-09T19:08:32.546Z,14.60
2023-04-09T19:11:02.081Z,14.60
2023-04-09T19:13:30.530Z,14.60
2023-04-09T19:15:58.962Z,14.50
2023-04-09T19:18:27.716Z,14.60
2023-04-09T19:20:56.229Z,14.60
2023-04-09T19:23:24.882Z,14.60
2023-04-09T19:25:55.204Z,14.60
2023-04-09T19:28:24.994Z,14.60
2023-04-09T19:30:53.674Z,14.60
2023-04-09T19:33:22.476Z,14.60
2023-04-09T19:35:51.330Z,14.50
2023-04-09T19:38:20.508Z,14.50
2023-04-09T19:40:49.009Z,14.40
2023-04-09T19:43:17.611Z,14.50
2023-04-09T19:45:47.316Z,14.40
2023-04-09T19:48:16.155Z,14.40
2023-04-09T19:50:45.462Z,14.30
2023-04-09T19:53:13.897Z,14.30
2023-04-09T19:55:42.431Z,14.20
2023-04-09T19:58:11.118Z,14.30
2023-04-09T20:00:39.442Z,14.30
2023-04-09T20:03:09.447Z,14.20
2023-04-09T20:05:38.469Z,14.20
2023-04-09T20:08:12.206Z,14.20
2023-04-09T20:10:45.015Z,14.20
2023-04-09T20:13:13.580Z,14.20
2023-04-09T20:15:42.086Z,14.10
2023-04-09T20:18:12.196Z,14.10
2023-04-09T20:20:40.652Z,14.10
2023-04-09T20:23:09.169Z,14.10
2023-04-09T20:25:37.785Z,14.10
2023-04-09T20:28:06.643Z,14.00
2023-04-09T20:30:34.894Z,14.10
2023-04-09T20:33:03.385Z,14.10
2023-04-09T20:35:35.425Z,14.00
2023-04-09T20:38:04.093Z,14.10
2023-04-09T20:40:32.917Z,14.00
2023-04-09T20:43:01.431Z,14.00
2023-04-09T20:45:29.924Z,13.90
2023-04-09T20:47:58.662Z,13.90
2023-04-09T20:50:28.825Z,13.90
2023-04-09T20:52:58.997Z,13.90
2023-04-09T20:55:27.646Z,13.80
2023-04-09T20:57:56.456Z,13.80
2023-04-09T21:00:25.159Z,13.80
2023-04-09T21:02:54.190Z,13.80
2023-04-09T21:05:24.241Z,13.70
2023-04-09T21:07:53.383Z,13.70
2023-04-09T21:10:23.253Z,13.70
2023-04-09T21:12:51.775Z,13.70
2023-04-09T21:15:20.163Z,13.70
2023-04-09T21:17:48.931Z,13.60
2023-04-09T21:20:17.547Z,13.60
2023-04-09T21:22:45.840Z,13.60
2023-04-09T21:25:15.416Z,13.60
2023-04-09T21:27:45.918Z,13.60
2023-04-09T21:30:14.242Z,13.60
2023-04-09T21:32:42.836Z,13.50
2023-04-09T21:35:11.575Z,13.50
2023-04-09T21:37:40.053Z,13.50
2023-04-09T21:40:09.460Z,13.50
2023-04-09T21:42:37.933Z,13.40
2023-04-09T21:45:08.481Z,13.40
2023-04-09T21:47:37.925Z,13.60
2023-04-09T21:50:07.035Z,13.50
2023-04-09T21:52:35.565Z,13.50
2023-04-09T21:55:04.003Z,13.40
2023-04-09T21:57:32.625Z,13.40
2023-04-09T22:00:01.359Z,13.40
2023-04-09T22:02:31.402Z,13.40
2023-04-09T22:05:01.104Z,13.40
2023-04-09T22:07:29.751Z,13.40
2023-04-09T22:09:58.790Z,13.30
2023-04-09T22:12:27.285Z,13.30
2023-04-09T22:14:56.223Z,13.30
2023-04-09T22:17:24.934Z,13.30
2023-04-09T22:19:54.700Z,13.30
2023-04-09T22:22:23.237Z,13.30
2023-04-09T22:24:51.552Z,13.30
2023-04-09T22:27:20.206Z,13.30
2023-04-09T22:29:48.645Z,13.20
2023-04-09T22:32:17.047Z,13.30
2023-04-09T22:34:45.470Z,13.20
2023-04-09T22:37:17.133Z,13.20
2023-04-09T22:39:45.730Z,13.20
2023-04-09T22:42:14.204Z,13.20
2023-04-09T22:44:42.656Z,13.30
2023-04-09T22:47:11.411Z,13.30
2023-04-09T22:49:39.816Z,13.40
2023-04-09T22:52:08.402Z,13.40
2023-04-09T22:54:38.247Z,13.60
2023-04-09T22:57:06.723Z,13.60
2023-04-09T23:02:07.498Z,13.60
2023-04-09T23:04:36.140Z,13.60
2023-04-09T23:07:04.800Z,13.50
2023-04-09T23:09:33.245Z,13.40
2023-04-09T23:12:03.281Z,13.40
2023-04-09T23:14:31.607Z,13.40
2023-04-09T23:17:00.352Z,13.50
2023-04-09T23:19:28.801Z,13.50
2023-04-09T23:21:57.093Z,13.60
2023-04-09T23:24:25.492Z,13.50
2023-04-09T23:26:54.212Z,13.50
2023-04-09T23:29:23.862Z,13.40
2023-04-09T23:31:52.506Z,13.40
2023-04-09T23:34:20.951Z,13.50
2023-04-09T23:36:49.353Z,13.50
2023-04-09T23:39:17.800Z,13.40
2023-04-09T23:41:46.295Z,13.30
2023-04-09T23:44:14.874Z,13.30
2023-04-09T23:46:44.798Z,13.30
2023-04-09T23:49:13.373Z,13.40
2023-04-09T23:51:41.794Z,13.30
2023-04-09T23:54:10.604Z,13.30
2023-04-09T23:56:39.151Z,13.30
2023-04-09T23:59:07.689Z,13.30
